createdAt,value
2019-03-28T00:00:43.061Z,8.66
2019-03-28T00:01:43.083Z,8.66
2019-03-28T00:02:43.045Z,8.70
2019-03-28T00:03:43.052Z,8.62
2019-03-28T00:04:43.025Z,8.66
2019-03-28T00:05:43.010Z,8.73
2019-03-28T00:06:43.012Z,8.68
2019-03-28T00:07:42.982Z,8.65
2019-03-28T00:08:42.969Z,8.63
2019-03-28T00:09:42.966Z,8.61
2019-03-28T00:10:42.987Z,8.58
2019-03-28T00:11:42.938Z,8.62
2019-03-28T00:12:42.926Z,8.58
2019-03-28T00:13:42.917Z,8.62
2019-03-28T00:14:43.205Z,8.61
2019-03-28T00:15:42.917Z,8.62
2019-03-28T00:16:42.909Z,8.65
2019-03-28T00:17:42.866Z,8.58
2019-03-28T00:18:42.857Z,8.55
2019-03-28T00:19:42.850Z,8.53
2019-03-28T00:20:42.838Z,8.52
2019-03-28T00:21:42.846Z,8.52
2019-03-28T00:22:42.816Z,8.47
2019-03-28T00:23:42.822Z,8.47
2019-03-28T00:24:42.787Z,8.48
2019-03-28T00:25:42.812Z,8.44
2019-03-28T00:26:42.776Z,8.47
2019-03-28T00:27:42.754Z,8.47
2019-03-28T00:28:42.744Z,8.50
2019-03-28T00:29:42.731Z,8.47
2019-03-28T00:30:42.747Z,8.41
2019-03-28T00:31:42.716Z,8.52
2019-03-28T00:32:42.706Z,8.37
2019-03-28T00:33:42.690Z,8.40
2019-03-28T00:34:42.709Z,8.37
2019-03-28T00:35:42.661Z,8.40
2019-03-28T00:36:42.653Z,8.36
2019-03-28T00:37:42.645Z,8.36
2019-03-28T00:38:42.662Z,8.34
2019-03-28T00:39:42.654Z,8.30
2019-03-28T00:40:42.606Z,8.22
2019-03-28T00:41:42.595Z,8.23
2019-03-28T00:42:42.652Z,8.16
2019-03-28T00:43:42.582Z,8.16
2019-03-28T00:44:42.570Z,8.16
2019-03-28T00:45:44.550Z,8.15
2019-03-28T00:46:42.559Z,8.19
2019-03-28T00:47:42.528Z,8.19
2019-03-28T00:48:42.526Z,8.19
2019-03-28T00:49:43.185Z,8.20
2019-03-28T00:50:42.493Z,8.18
2019-03-28T00:51:43.343Z,8.15
2019-03-28T00:52:42.470Z,8.11
2019-03-28T00:53:42.458Z,8.05
2019-03-28T00:54:42.453Z,8.02
2019-03-28T00:55:42.459Z,8.07
2019-03-28T00:56:46.814Z,8.07
2019-03-28T00:57:42.444Z,8.02
2019-03-28T00:58:42.403Z,8.05
2019-03-28T00:59:42.393Z,8.00
2019-03-28T01:00:42.389Z,8.05
2019-03-28T01:01:42.399Z,8.00
2019-03-28T01:02:42.358Z,7.98
2019-03-28T01:03:42.352Z,8.01
2019-03-28T01:04:42.336Z,7.98
2019-03-28T01:05:42.438Z,8.00
2019-03-28T01:06:42.312Z,8.04
2019-03-28T01:07:42.302Z,7.92
2019-03-28T01:08:42.315Z,8.01
2019-03-28T01:09:42.303Z,7.97
2019-03-28T01:10:42.266Z,7.97
2019-03-28T01:11:42.255Z,7.97
2019-03-28T01:12:42.273Z,7.97
2019-03-28T01:13:42.232Z,8.01
2019-03-28T01:14:42.221Z,7.98
2019-03-28T01:15:42.217Z,7.93
2019-03-28T01:16:42.203Z,7.95
2019-03-28T01:17:42.208Z,7.98
2019-03-28T01:18:42.175Z,7.93
2019-03-28T01:19:42.186Z,7.92
2019-03-28T01:20:42.156Z,7.97
2019-03-28T01:21:42.143Z,7.83
2019-03-28T01:22:42.131Z,7.83
2019-03-28T01:23:42.146Z,7.87
2019-03-28T01:24:42.107Z,7.89
2019-03-28T01:25:42.096Z,7.86
2019-03-28T01:26:42.091Z,7.87
2019-03-28T01:27:42.078Z,7.83
2019-03-28T01:28:42.081Z,7.87
2019-03-28T01:29:42.053Z,7.87
2019-03-28T01:30:42.086Z,7.89
2019-03-28T01:31:42.035Z,7.83
2019-03-28T01:32:42.039Z,7.86
2019-03-28T01:33:42.006Z,7.86
2019-03-28T01:34:42.020Z,7.86
2019-03-28T01:35:42.007Z,7.90
2019-03-28T01:36:41.976Z,7.85
2019-03-28T01:37:41.960Z,7.92
2019-03-28T01:38:41.952Z,7.82
2019-03-28T01:39:41.963Z,7.92
2019-03-28T01:40:41.934Z,7.93
2019-03-28T01:41:41.916Z,7.85
2019-03-28T01:42:41.927Z,7.82
2019-03-28T01:43:41.892Z,7.90
2019-03-28T01:44:41.883Z,7.90
2019-03-28T01:45:41.895Z,7.92
2019-03-28T01:46:41.860Z,7.80
2019-03-28T01:47:41.846Z,7.77
2019-03-28T01:48:41.839Z,7.86
2019-03-28T01:49:41.826Z,7.79
2019-03-28T01:50:41.840Z,7.71
2019-03-28T01:51:41.810Z,7.71
2019-03-28T01:52:41.792Z,7.68
2019-03-28T01:53:41.781Z,7.64
2019-03-28T01:54:41.768Z,7.64
2019-03-28T01:55:41.782Z,7.58
2019-03-28T01:56:41.748Z,7.60
2019-03-28T01:57:41.762Z,7.67
2019-03-28T01:58:41.723Z,7.68
2019-03-28T01:59:41.713Z,7.57
2019-03-28T02:00:41.700Z,7.53
2019-03-28T02:01:41.711Z,7.55
2019-03-28T02:02:41.677Z,7.46
2019-03-28T02:03:41.691Z,7.53
2019-03-28T02:04:41.656Z,7.50
2019-03-28T02:05:41.645Z,7.50
2019-03-28T02:06:41.632Z,7.46
2019-03-28T02:07:41.654Z,7.45
2019-03-28T02:08:41.665Z,7.53
2019-03-28T02:09:41.602Z,7.53
2019-03-28T02:10:41.589Z,7.50
2019-03-28T02:11:41.578Z,7.50
2019-03-28T02:12:41.568Z,7.52
2019-03-28T02:13:41.578Z,7.49
2019-03-28T02:14:41.564Z,7.48
2019-03-28T02:15:41.534Z,7.49
2019-03-28T02:16:41.522Z,7.48
2019-03-28T02:17:41.510Z,7.50
2019-03-28T02:18:41.532Z,7.50
2019-03-28T02:19:41.488Z,7.48
2019-03-28T02:20:41.479Z,7.43
2019-03-28T02:21:41.467Z,7.37
2019-03-28T02:22:41.472Z,7.42
2019-03-28T02:23:41.466Z,7.40
2019-03-28T02:24:41.434Z,7.43
2019-03-28T02:25:41.421Z,7.42
2019-03-28T02:26:41.429Z,7.39
2019-03-28T02:27:41.429Z,7.37
2019-03-28T02:28:41.434Z,7.39
2019-03-28T02:29:41.375Z,7.43
2019-03-28T02:30:41.395Z,7.34
2019-03-28T02:31:41.375Z,7.48
2019-03-28T02:32:41.349Z,7.39
2019-03-28T02:33:41.340Z,7.42
2019-03-28T02:34:41.319Z,7.40
2019-03-28T02:35:41.342Z,7.46
2019-03-28T02:36:41.301Z,7.48
2019-03-28T02:37:41.286Z,7.43
2019-03-28T02:38:41.378Z,7.42
2019-03-28T02:39:41.262Z,7.50
2019-03-28T02:40:41.968Z,7.45
2019-03-28T02:41:41.240Z,7.43
2019-03-28T02:42:41.227Z,7.48
2019-03-28T02:43:41.242Z,7.50
2019-03-28T02:44:41.249Z,7.52
2019-03-28T02:45:41.264Z,7.50
2019-03-28T02:46:41.204Z,7.50
2019-03-28T02:47:41.299Z,7.50
2019-03-28T02:48:41.162Z,7.50
2019-03-28T02:49:41.181Z,7.50
2019-03-28T02:50:41.143Z,7.52
2019-03-28T02:51:41.134Z,7.45
2019-03-28T02:52:41.113Z,7.55
2019-03-28T02:53:41.133Z,7.55
2019-03-28T02:54:41.115Z,7.48
2019-03-28T02:55:41.079Z,7.61
2019-03-28T02:56:41.807Z,7.60
2019-03-28T02:57:43.573Z,7.53
2019-03-28T02:58:41.046Z,7.61
2019-03-28T02:59:41.044Z,7.52
2019-03-28T03:00:41.030Z,7.57
2019-03-28T03:01:41.042Z,7.60
2019-03-28T03:02:41.001Z,7.63
2019-03-28T03:03:40.990Z,7.61
2019-03-28T03:04:40.977Z,7.58
2019-03-28T03:05:40.972Z,7.45
2019-03-28T03:06:40.984Z,7.57
2019-03-28T03:07:41.728Z,7.63
2019-03-28T03:08:40.933Z,7.57
2019-03-28T03:09:40.922Z,7.64
2019-03-28T03:10:40.912Z,7.61
2019-03-28T03:11:42.784Z,7.69
2019-03-28T03:12:40.898Z,7.58
2019-03-28T03:13:40.902Z,7.58
2019-03-28T03:14:40.865Z,7.52
2019-03-28T03:15:40.883Z,7.55
2019-03-28T03:16:40.848Z,7.60
2019-03-28T03:17:41.509Z,7.52
2019-03-28T03:18:40.902Z,7.57
2019-03-28T03:19:40.836Z,7.61
2019-03-28T03:20:40.798Z,7.64
2019-03-28T03:21:40.813Z,7.69
2019-03-28T03:22:40.779Z,7.71
2019-03-28T03:23:40.767Z,7.69
2019-03-28T03:24:40.803Z,7.72
2019-03-28T03:25:40.745Z,7.68
2019-03-28T03:26:40.732Z,7.63
2019-03-28T03:27:56.294Z,7.49
2019-03-28T03:28:41.711Z,7.63
2019-03-28T03:29:40.726Z,7.61
2019-03-28T03:30:40.688Z,7.67
2019-03-28T03:31:40.677Z,7.64
2019-03-28T03:32:40.694Z,7.61
2019-03-28T03:33:40.681Z,7.63
2019-03-28T03:34:40.651Z,7.60
2019-03-28T03:35:40.645Z,7.63
2019-03-28T03:36:40.651Z,7.55
2019-03-28T03:37:40.607Z,7.49
2019-03-28T03:38:40.598Z,7.63
2019-03-28T03:39:40.588Z,7.50
2019-03-28T03:40:40.592Z,7.46
2019-03-28T03:41:40.596Z,7.60
2019-03-28T03:42:40.556Z,7.64
2019-03-28T03:43:40.542Z,7.58
2019-03-28T03:44:41.995Z,7.61
2019-03-28T03:45:40.602Z,7.61
2019-03-28T03:46:40.530Z,7.53
2019-03-28T03:47:40.517Z,7.55
2019-03-28T03:48:40.487Z,7.63
2019-03-28T03:49:40.507Z,7.60
2019-03-28T03:50:40.468Z,7.43
2019-03-28T03:51:40.744Z,7.49
2019-03-28T03:52:41.595Z,7.46
2019-03-28T03:53:40.431Z,7.48
2019-03-28T03:54:40.447Z,7.60
2019-03-28T03:55:40.406Z,7.46
2019-03-28T03:56:40.395Z,7.46
2019-03-28T03:57:40.394Z,7.52
2019-03-28T03:58:40.404Z,7.53
2019-03-28T03:59:40.360Z,7.46
2019-03-28T04:00:40.382Z,7.46
2019-03-28T04:01:40.346Z,7.52
2019-03-28T04:02:40.352Z,7.48
2019-03-28T04:03:40.336Z,7.46
2019-03-28T04:04:41.081Z,7.49
2019-03-28T04:05:40.344Z,7.45
2019-03-28T04:06:40.287Z,7.49
2019-03-28T04:07:40.278Z,7.49
2019-03-28T04:08:40.288Z,7.48
2019-03-28T04:09:40.252Z,7.52
2019-03-28T04:10:40.260Z,7.45
2019-03-28T04:11:40.229Z,7.48
2019-03-28T04:12:40.226Z,7.46
2019-03-28T04:13:40.204Z,7.48
2019-03-28T04:14:40.224Z,7.50
2019-03-28T04:15:40.218Z,7.45
2019-03-28T04:16:40.170Z,7.49
2019-03-28T04:17:40.200Z,7.42
2019-03-28T04:18:40.219Z,7.52
2019-03-28T04:19:40.141Z,7.46
2019-03-28T04:20:40.149Z,7.42
2019-03-28T04:21:40.139Z,7.50
2019-03-28T04:22:40.114Z,7.55
2019-03-28T04:23:40.108Z,7.50
2019-03-28T04:24:40.102Z,7.48
2019-03-28T04:25:40.219Z,7.48
2019-03-28T04:26:40.055Z,7.48
2019-03-28T04:27:40.045Z,7.46
2019-03-28T04:28:40.033Z,7.50
2019-03-28T04:29:40.048Z,7.49
2019-03-28T04:30:40.011Z,7.45
2019-03-28T04:31:40.008Z,7.49
2019-03-28T04:32:39.999Z,7.57
2019-03-28T04:33:39.976Z,7.46
2019-03-28T04:34:39.991Z,7.53
2019-03-28T04:35:39.960Z,7.46
2019-03-28T04:36:40.838Z,7.40
2019-03-28T04:37:39.940Z,7.45
2019-03-28T04:38:39.923Z,7.43
2019-03-28T04:39:39.983Z,7.46
2019-03-28T04:40:39.922Z,7.43
2019-03-28T04:41:39.891Z,7.48
2019-03-28T04:42:39.883Z,7.49
2019-03-28T04:43:39.869Z,7.48
2019-03-28T04:44:39.852Z,7.45
2019-03-28T04:45:39.866Z,7.48
2019-03-28T04:46:39.882Z,7.46
2019-03-28T04:47:39.822Z,7.48
2019-03-28T04:48:39.807Z,7.48
2019-03-28T04:49:39.799Z,7.48
2019-03-28T04:50:39.813Z,7.48
2019-03-28T04:51:39.772Z,7.46
2019-03-28T04:52:39.765Z,7.45
2019-03-28T04:53:39.759Z,7.53
2019-03-28T04:54:39.738Z,7.53
2019-03-28T04:55:39.758Z,7.49
2019-03-28T04:56:39.718Z,7.48
2019-03-28T04:57:41.210Z,7.45
2019-03-28T04:58:44.627Z,7.52
2019-03-28T04:59:41.374Z,7.50
2019-03-28T05:00:39.708Z,7.48
2019-03-28T05:01:39.703Z,7.49
2019-03-28T05:02:39.648Z,7.55
2019-03-28T05:03:39.675Z,7.57
2019-03-28T05:04:40.453Z,7.55
2019-03-28T05:05:39.631Z,7.50
2019-03-28T05:06:39.616Z,7.52
2019-03-28T05:07:39.607Z,7.46
2019-03-28T05:08:39.617Z,7.50
2019-03-28T05:09:39.579Z,7.49
2019-03-28T05:10:39.562Z,7.48
2019-03-28T05:11:39.559Z,7.52
2019-03-28T05:12:39.544Z,7.48
2019-03-28T05:13:39.584Z,7.52
2019-03-28T05:14:40.380Z,7.50
2019-03-28T05:15:39.539Z,7.49
2019-03-28T05:16:39.499Z,7.52
2019-03-28T05:17:40.394Z,7.52
2019-03-28T05:18:39.472Z,7.48
2019-03-28T05:19:39.535Z,7.49
2019-03-28T05:20:40.431Z,7.52
2019-03-28T05:21:39.436Z,7.45
2019-03-28T05:22:39.440Z,7.53
2019-03-28T05:23:39.461Z,7.45
2019-03-28T05:24:39.442Z,7.52
2019-03-28T05:25:39.395Z,7.53
2019-03-28T05:26:39.394Z,7.46
2019-03-28T05:27:39.399Z,7.46
2019-03-28T05:28:39.362Z,7.50
2019-03-28T05:29:39.352Z,7.55
2019-03-28T05:30:39.392Z,7.50
2019-03-28T05:31:39.323Z,7.57
2019-03-28T05:32:39.326Z,7.46
2019-03-28T05:33:39.320Z,7.55
2019-03-28T05:34:39.328Z,7.49
2019-03-28T05:35:39.284Z,7.50
2019-03-28T05:36:39.275Z,7.52
2019-03-28T05:37:39.260Z,7.55
2019-03-28T05:38:39.251Z,7.49
2019-03-28T05:39:39.261Z,7.50
2019-03-28T05:40:39.229Z,7.53
2019-03-28T05:41:39.215Z,7.43
2019-03-28T05:42:39.201Z,7.55
2019-03-28T05:43:39.214Z,7.46
2019-03-28T05:44:39.188Z,7.46
2019-03-28T05:45:39.183Z,7.46
2019-03-28T05:46:39.196Z,7.58
2019-03-28T05:47:39.169Z,7.48
2019-03-28T05:48:39.131Z,7.57
2019-03-28T05:49:39.130Z,7.46
2019-03-28T05:50:39.112Z,7.60
2019-03-28T05:51:39.117Z,7.60
2019-03-28T05:52:39.127Z,7.53
2019-03-28T05:53:39.079Z,7.64
2019-03-28T05:54:39.064Z,7.68
2019-03-28T05:55:39.076Z,7.68
2019-03-28T05:56:39.081Z,7.69
2019-03-28T05:57:39.032Z,7.67
2019-03-28T05:58:39.025Z,7.74
2019-03-28T05:59:39.033Z,7.82
2019-03-28T06:00:40.164Z,7.79
2019-03-28T06:01:39.008Z,7.80
2019-03-28T06:02:38.978Z,7.86
2019-03-28T06:03:38.959Z,7.86
2019-03-28T06:04:38.958Z,7.89
2019-03-28T06:05:38.938Z,7.90
2019-03-28T06:06:38.949Z,7.98
2019-03-28T06:07:38.918Z,7.97
2019-03-28T06:08:38.952Z,8.04
2019-03-28T06:09:40.274Z,8.16
2019-03-28T06:10:38.889Z,8.18
2019-03-28T06:11:38.904Z,8.18
2019-03-28T06:12:38.873Z,8.25
2019-03-28T06:13:38.858Z,8.19
2019-03-28T06:14:38.852Z,8.34
2019-03-28T06:15:41.024Z,8.30
2019-03-28T06:16:38.848Z,8.29
2019-03-28T06:17:38.803Z,8.34
2019-03-28T06:18:38.807Z,8.41
2019-03-28T06:19:38.805Z,8.43
2019-03-28T06:20:38.807Z,8.37
2019-03-28T06:21:39.742Z,8.43
2019-03-28T06:22:39.561Z,8.47
2019-03-28T06:23:39.407Z,8.55
2019-03-28T06:24:38.752Z,8.41
2019-03-28T06:25:40.891Z,8.41
2019-03-28T06:26:38.749Z,8.45
2019-03-28T06:27:38.690Z,8.47
2019-03-28T06:28:38.685Z,8.47
2019-03-28T06:29:38.670Z,8.52
2019-03-28T06:30:38.699Z,8.52
2019-03-28T06:31:38.679Z,8.53
2019-03-28T06:32:43.238Z,8.48
2019-03-28T06:33:38.645Z,8.47
2019-03-28T06:34:38.618Z,8.52
2019-03-28T06:35:38.601Z,8.56
2019-03-28T06:36:38.610Z,8.43
2019-03-28T06:37:38.593Z,8.53
2019-03-28T06:38:38.597Z,8.53
2019-03-28T06:39:38.567Z,8.61
2019-03-28T06:40:38.554Z,8.58
2019-03-28T06:41:38.532Z,8.52
2019-03-28T06:42:38.557Z,8.59
2019-03-28T06:43:38.535Z,8.58
2019-03-28T06:44:38.546Z,8.62
2019-03-28T06:45:38.495Z,8.62
2019-03-28T06:46:38.485Z,8.58
2019-03-28T06:47:38.572Z,8.61
2019-03-28T06:48:38.477Z,8.65
2019-03-28T06:49:38.514Z,8.70
2019-03-28T06:50:38.434Z,8.68
2019-03-28T06:51:38.421Z,8.65
2019-03-28T06:52:38.443Z,8.74
2019-03-28T06:53:38.535Z,8.73
2019-03-28T06:54:38.416Z,8.76
2019-03-28T06:55:38.390Z,8.79
2019-03-28T06:56:38.384Z,8.80
2019-03-28T06:57:38.353Z,8.73
2019-03-28T06:58:38.346Z,8.71
2019-03-28T06:59:38.368Z,8.73
2019-03-28T07:00:38.325Z,8.83
2019-03-28T07:01:38.312Z,8.84
2019-03-28T07:02:38.304Z,8.94
2019-03-28T07:03:38.493Z,8.96
2019-03-28T07:04:38.307Z,8.96
2019-03-28T07:05:38.271Z,9.05
2019-03-28T07:06:38.255Z,9.11
2019-03-28T07:07:38.265Z,9.11
2019-03-28T07:08:38.232Z,9.04
2019-03-28T07:09:38.239Z,9.11
2019-03-28T07:10:38.209Z,9.15
2019-03-28T07:11:38.222Z,9.14
2019-03-28T07:12:38.190Z,9.14
2019-03-28T07:13:38.188Z,9.13
2019-03-28T07:14:38.162Z,9.08
2019-03-28T07:15:38.220Z,8.98
2019-03-28T07:16:38.146Z,9.08
2019-03-28T07:17:38.139Z,9.15
2019-03-28T07:18:38.119Z,9.11
2019-03-28T07:19:38.107Z,9.14
2019-03-28T07:20:38.109Z,9.13
2019-03-28T07:21:38.089Z,9.14
2019-03-28T07:22:38.085Z,9.18
2019-03-28T07:23:38.080Z,9.17
2019-03-28T07:24:38.101Z,9.33
2019-03-28T07:25:38.044Z,9.35
2019-03-28T07:26:38.029Z,9.29
2019-03-28T07:27:38.074Z,9.35
2019-03-28T07:28:38.035Z,9.39
2019-03-28T07:29:50.221Z,9.39
2019-03-28T07:30:39.005Z,9.50
2019-03-28T07:31:37.978Z,9.60
2019-03-28T07:32:37.966Z,9.65
2019-03-28T07:33:38.070Z,9.72
2019-03-28T07:34:37.933Z,9.75
2019-03-28T07:35:37.921Z,9.68
2019-03-28T07:36:37.917Z,9.75
2019-03-28T07:37:38.583Z,9.89
2019-03-28T07:38:37.898Z,9.91
2019-03-28T07:39:37.889Z,9.93
2019-03-28T07:40:37.873Z,10.04
2019-03-28T07:41:37.861Z,10.22
2019-03-28T07:42:37.880Z,10.18
2019-03-28T07:43:37.845Z,10.29
2019-03-28T07:44:37.827Z,10.23
2019-03-28T07:45:37.831Z,10.44
2019-03-28T07:46:37.806Z,10.55
2019-03-28T07:47:37.830Z,10.59
2019-03-28T07:48:37.812Z,10.51
2019-03-28T07:49:37.873Z,10.53
2019-03-28T07:50:37.793Z,10.61
2019-03-28T07:51:37.766Z,10.82
2019-03-28T07:52:37.736Z,10.85
2019-03-28T07:53:37.781Z,10.97
2019-03-28T07:54:37.738Z,10.92
2019-03-28T07:55:37.710Z,11.09
2019-03-28T07:56:37.693Z,11.14
2019-03-28T07:57:37.679Z,11.11
2019-03-28T07:58:37.784Z,11.03
2019-03-28T07:59:37.657Z,10.91
2019-03-28T08:00:37.649Z,10.74
2019-03-28T08:01:37.639Z,10.63
2019-03-28T08:02:37.651Z,10.64
2019-03-28T08:03:39.901Z,10.71
2019-03-28T08:04:37.607Z,10.60
2019-03-28T08:05:37.590Z,10.68
2019-03-28T08:06:49.051Z,10.94
2019-03-28T08:07:44.974Z,11.11
2019-03-28T08:08:39.190Z,11.37
2019-03-28T08:09:37.544Z,11.43
2019-03-28T08:10:37.552Z,11.44
2019-03-28T08:11:38.633Z,11.46
2019-03-28T08:12:37.505Z,11.40
2019-03-28T08:13:37.504Z,11.44
2019-03-28T08:14:37.513Z,11.27
2019-03-28T08:15:37.473Z,11.18
2019-03-28T08:16:37.461Z,11.22
2019-03-28T08:17:37.447Z,11.36
2019-03-28T08:18:37.443Z,11.37
2019-03-28T08:19:39.902Z,11.37
2019-03-28T08:20:37.423Z,11.29
2019-03-28T08:21:37.424Z,11.18
2019-03-28T08:22:37.394Z,10.91
2019-03-28T08:23:37.407Z,10.79
2019-03-28T08:24:37.386Z,10.85
2019-03-28T08:25:37.367Z,10.88
2019-03-28T08:26:37.357Z,10.84
2019-03-28T08:27:37.388Z,10.73
2019-03-28T08:28:37.331Z,10.74
2019-03-28T08:29:37.314Z,10.73
2019-03-28T08:30:37.312Z,10.71
2019-03-28T08:31:40.485Z,10.81
2019-03-28T08:32:39.779Z,11.03
2019-03-28T08:33:37.294Z,11.14
2019-03-28T08:34:37.262Z,11.21
2019-03-28T08:35:37.247Z,11.37
2019-03-28T08:36:37.240Z,11.42
2019-03-28T08:37:37.232Z,11.33
2019-03-28T08:38:37.266Z,11.40
2019-03-28T08:39:37.207Z,11.24
2019-03-28T08:40:39.625Z,11.04
2019-03-28T08:41:37.185Z,11.25
2019-03-28T08:42:37.167Z,11.40
2019-03-28T08:43:37.183Z,11.29
2019-03-28T08:44:37.145Z,11.25
2019-03-28T08:45:37.132Z,11.32
2019-03-28T08:46:37.152Z,11.35
2019-03-28T08:47:37.120Z,11.24
2019-03-28T08:48:37.112Z,11.37
2019-03-28T08:49:37.097Z,11.44
2019-03-28T08:50:37.077Z,11.19
2019-03-28T08:51:37.072Z,11.02
2019-03-28T08:52:37.083Z,10.78
2019-03-28T08:53:37.047Z,10.84
2019-03-28T08:54:37.058Z,10.86
2019-03-28T08:55:37.057Z,10.94
2019-03-28T08:56:37.010Z,10.86
2019-03-28T08:57:37.036Z,10.97
2019-03-28T08:58:38.289Z,11.07
2019-03-28T08:59:36.986Z,11.10
2019-03-28T09:00:51.013Z,11.25
2019-03-28T09:01:37.998Z,11.00
2019-03-28T09:02:36.937Z,10.91
2019-03-28T09:03:36.936Z,10.82
2019-03-28T09:04:36.949Z,10.89
2019-03-28T09:05:36.924Z,11.03
2019-03-28T09:06:36.930Z,11.19
2019-03-28T09:07:36.888Z,11.19
2019-03-28T09:08:36.875Z,11.39
2019-03-28T09:09:36.868Z,11.37
2019-03-28T09:10:36.857Z,11.37
2019-03-28T09:11:36.876Z,11.44
2019-03-28T09:12:36.830Z,11.28
2019-03-28T09:13:36.823Z,11.37
2019-03-28T09:14:37.037Z,11.28
2019-03-28T09:15:43.661Z,11.22
2019-03-28T09:16:37.797Z,11.17
2019-03-28T09:17:36.768Z,11.19
2019-03-28T09:18:36.796Z,11.33
2019-03-28T09:19:39.017Z,11.29
2019-03-28T09:20:36.744Z,11.29
2019-03-28T09:21:36.765Z,11.55
2019-03-28T09:22:38.926Z,11.55
2019-03-28T09:23:36.719Z,11.61
2019-03-28T09:24:36.735Z,11.76
2019-03-28T09:25:36.678Z,11.58
2019-03-28T09:26:36.677Z,11.39
2019-03-28T09:27:36.678Z,11.24
2019-03-28T09:28:36.669Z,11.37
2019-03-28T09:29:36.745Z,11.54
2019-03-28T09:30:47.312Z,11.54
2019-03-28T09:31:37.614Z,11.51
2019-03-28T09:32:36.629Z,11.54
2019-03-28T09:33:36.608Z,11.40
2019-03-28T09:34:36.631Z,11.37
2019-03-28T09:35:36.613Z,11.39
2019-03-28T09:36:36.567Z,11.36
2019-03-28T09:37:36.553Z,11.29
2019-03-28T09:38:36.556Z,11.35
2019-03-28T09:39:36.531Z,11.32
2019-03-28T09:40:36.515Z,11.21
2019-03-28T09:41:36.532Z,11.18
2019-03-28T09:42:36.491Z,11.15
2019-03-28T09:43:36.485Z,11.22
2019-03-28T09:44:36.472Z,11.17
2019-03-28T09:45:36.471Z,11.02
2019-03-28T09:46:36.482Z,10.99
2019-03-28T09:47:36.518Z,11.06
2019-03-28T09:48:36.432Z,11.15
2019-03-28T09:49:36.429Z,11.21
2019-03-28T09:50:36.437Z,11.22
2019-03-28T09:51:36.425Z,11.32
2019-03-28T09:52:36.378Z,11.40
2019-03-28T09:53:36.388Z,11.55
2019-03-28T09:54:36.352Z,11.43
2019-03-28T09:55:36.375Z,11.57
2019-03-28T09:56:36.338Z,11.83
2019-03-28T09:57:36.345Z,11.95
2019-03-28T09:58:36.312Z,12.16
2019-03-28T09:59:36.297Z,12.21
2019-03-28T10:00:36.307Z,12.39
2019-03-28T10:01:36.285Z,12.70
2019-03-28T10:02:36.281Z,12.83
2019-03-28T10:03:36.256Z,12.85
2019-03-28T10:04:36.245Z,12.65
2019-03-28T10:05:38.011Z,12.62
2019-03-28T10:06:36.242Z,12.79
2019-03-28T10:07:38.421Z,12.82
2019-03-28T10:08:36.217Z,12.85
2019-03-28T10:09:36.210Z,13.22
2019-03-28T10:10:36.202Z,13.44
2019-03-28T10:11:36.164Z,13.41
2019-03-28T10:12:36.154Z,13.42
2019-03-28T10:13:36.152Z,13.41
2019-03-28T10:14:36.148Z,13.38
2019-03-28T10:15:37.122Z,13.49
2019-03-28T10:16:36.113Z,13.22
2019-03-28T10:17:36.131Z,12.96
2019-03-28T10:18:36.086Z,12.95
2019-03-28T10:19:36.097Z,13.49
2019-03-28T10:20:36.068Z,13.54
2019-03-28T10:21:37.578Z,13.67
2019-03-28T10:22:36.089Z,13.71
2019-03-28T10:23:36.076Z,13.78
2019-03-28T10:24:36.017Z,13.77
2019-03-28T10:25:36.046Z,13.51
2019-03-28T10:26:35.994Z,13.41
2019-03-28T10:27:36.007Z,13.32
2019-03-28T10:28:35.969Z,13.42
2019-03-28T10:29:35.998Z,13.30
2019-03-28T10:30:35.955Z,12.96
2019-03-28T10:31:35.939Z,13.00
2019-03-28T10:32:35.932Z,13.25
2019-03-28T10:33:35.933Z,13.29
2019-03-28T10:34:35.936Z,13.15
2019-03-28T10:35:35.986Z,12.97
2019-03-28T10:36:35.896Z,13.01
2019-03-28T10:37:35.871Z,12.79
2019-03-28T10:38:35.903Z,12.92
2019-03-28T10:39:35.845Z,13.10
2019-03-28T10:40:36.480Z,12.87
2019-03-28T10:41:35.857Z,12.96
2019-03-28T10:42:35.822Z,13.22
2019-03-28T10:43:35.839Z,13.33
2019-03-28T10:44:35.793Z,13.45
2019-03-28T10:45:35.783Z,13.54
2019-03-28T10:46:35.768Z,13.59
2019-03-28T10:47:35.766Z,13.88
2019-03-28T10:48:35.780Z,13.99
2019-03-28T10:49:35.780Z,14.18
2019-03-28T10:50:42.248Z,14.14
2019-03-28T10:51:36.708Z,14.21
2019-03-28T10:52:35.751Z,14.37
2019-03-28T10:53:35.692Z,14.68
2019-03-28T10:54:35.707Z,14.86
2019-03-28T10:55:35.708Z,15.31
2019-03-28T10:56:35.683Z,15.13
2019-03-28T10:57:35.649Z,14.40
2019-03-28T10:58:35.641Z,14.24
2019-03-28T10:59:35.634Z,14.15
2019-03-28T11:00:35.606Z,14.25
2019-03-28T11:01:47.968Z,14.25
2019-03-28T11:02:36.633Z,14.27
2019-03-28T11:03:35.590Z,14.25
2019-03-28T11:04:35.564Z,14.17
2019-03-28T11:05:35.555Z,14.20
2019-03-28T11:06:35.566Z,14.15
2019-03-28T11:07:35.552Z,14.18
2019-03-28T11:08:36.642Z,14.18
2019-03-28T11:09:35.507Z,14.12
2019-03-28T11:10:35.503Z,14.02
2019-03-28T11:11:35.491Z,13.79
2019-03-28T11:12:35.513Z,13.59
2019-03-28T11:13:35.461Z,13.67
2019-03-28T11:14:35.463Z,13.69
2019-03-28T11:15:35.437Z,13.69
2019-03-28T11:16:35.437Z,13.95
2019-03-28T11:17:35.440Z,14.02
2019-03-28T11:18:35.446Z,13.88
2019-03-28T11:19:35.392Z,13.77
2019-03-28T11:20:35.831Z,13.78
2019-03-28T11:21:35.401Z,13.57
2019-03-28T11:22:35.361Z,13.79
2019-03-28T11:23:35.522Z,13.97
2019-03-28T11:24:35.387Z,14.10
2019-03-28T11:25:35.360Z,13.97
2019-03-28T11:26:35.317Z,13.73
2019-03-28T11:27:35.306Z,13.62
2019-03-28T11:28:35.290Z,13.54
2019-03-28T11:29:35.282Z,13.51
2019-03-28T11:30:35.300Z,13.51
2019-03-28T11:31:45.557Z,13.48
2019-03-28T11:32:36.338Z,13.33
2019-03-28T11:33:35.237Z,13.33
2019-03-28T11:34:35.223Z,13.44
2019-03-28T11:35:35.250Z,13.60
2019-03-28T11:36:35.218Z,13.75
2019-03-28T11:37:35.190Z,13.85
2019-03-28T11:38:35.179Z,14.20
2019-03-28T11:39:35.180Z,14.37
2019-03-28T11:40:35.196Z,14.57
2019-03-28T11:41:35.164Z,14.62
2019-03-28T11:42:35.140Z,14.61
2019-03-28T11:43:35.121Z,14.50
2019-03-28T11:44:35.110Z,14.43
2019-03-28T11:45:35.203Z,14.09
2019-03-28T11:46:35.089Z,13.79
2019-03-28T11:47:35.074Z,13.51
2019-03-28T11:48:35.065Z,13.57
2019-03-28T11:49:35.081Z,13.52
2019-03-28T11:50:35.062Z,13.60
2019-03-28T11:51:36.396Z,13.71
2019-03-28T11:52:35.017Z,13.87
2019-03-28T11:53:35.007Z,13.73
2019-03-28T11:54:35.024Z,13.70
2019-03-28T11:55:34.986Z,13.73
2019-03-28T11:56:34.974Z,13.71
2019-03-28T11:57:34.960Z,13.73
2019-03-28T11:58:34.962Z,13.91
2019-03-28T11:59:34.975Z,13.85
2019-03-28T12:00:34.928Z,13.79
2019-03-28T12:01:34.937Z,13.69
2019-03-28T12:02:34.903Z,13.59
2019-03-28T12:03:34.905Z,13.38
2019-03-28T12:04:34.923Z,13.26
2019-03-28T12:05:34.879Z,13.23
2019-03-28T12:06:34.862Z,13.39
2019-03-28T12:07:34.872Z,13.45
2019-03-28T12:08:34.878Z,13.54
2019-03-28T12:09:34.824Z,13.69
2019-03-28T12:10:34.822Z,13.71
2019-03-28T12:11:34.799Z,13.49
2019-03-28T12:12:34.818Z,13.14
2019-03-28T12:13:44.615Z,13.12
2019-03-28T12:14:35.765Z,13.08
2019-03-28T12:15:34.761Z,13.12
2019-03-28T12:16:34.823Z,13.32
2019-03-28T12:17:34.733Z,13.30
2019-03-28T12:18:34.733Z,13.26
2019-03-28T12:19:34.723Z,13.44
2019-03-28T12:20:34.734Z,13.44
2019-03-28T12:21:34.723Z,13.44
2019-03-28T12:22:34.686Z,13.54
2019-03-28T12:23:34.668Z,13.49
2019-03-28T12:24:34.659Z,13.48
2019-03-28T12:25:34.654Z,13.32
2019-03-28T12:26:34.656Z,13.26
2019-03-28T12:27:34.636Z,13.12
2019-03-28T12:28:34.612Z,13.10
2019-03-28T12:29:35.925Z,13.00
2019-03-28T12:30:34.596Z,13.00
2019-03-28T12:31:34.591Z,13.01
2019-03-28T12:32:34.625Z,12.85
2019-03-28T12:33:34.557Z,12.74
2019-03-28T12:34:34.572Z,12.70
2019-03-28T12:35:34.535Z,12.60
2019-03-28T12:36:34.550Z,12.57
2019-03-28T12:37:34.508Z,12.62
2019-03-28T12:38:34.527Z,12.60
2019-03-28T12:39:34.487Z,12.52
2019-03-28T12:40:34.483Z,12.64
2019-03-28T12:41:34.472Z,12.60
2019-03-28T12:42:34.462Z,12.62
2019-03-28T12:43:34.470Z,12.68
2019-03-28T12:44:34.436Z,12.72
2019-03-28T12:45:34.423Z,12.75
2019-03-28T12:46:34.438Z,12.62
2019-03-28T12:47:42.344Z,12.49
2019-03-28T12:48:35.383Z,12.42
2019-03-28T12:49:34.377Z,12.50
2019-03-28T12:50:34.379Z,12.56
2019-03-28T12:51:34.378Z,12.54
2019-03-28T12:52:34.376Z,12.54
2019-03-28T12:53:34.331Z,12.49
2019-03-28T12:54:34.326Z,12.54
2019-03-28T12:55:34.310Z,12.42
2019-03-28T12:56:34.297Z,12.62
2019-03-28T12:57:34.329Z,12.62
2019-03-28T12:58:34.282Z,12.62
2019-03-28T12:59:34.288Z,12.59
2019-03-28T13:00:34.258Z,12.60
2019-03-28T13:01:34.242Z,12.49
2019-03-28T13:02:34.253Z,12.50
2019-03-28T13:03:44.843Z,12.53
2019-03-28T13:04:35.210Z,12.53
2019-03-28T13:05:34.833Z,12.67
2019-03-28T13:06:34.205Z,12.72
2019-03-28T13:07:34.306Z,12.65